sensor_id;sensor_type;location;lat;lon;timestamp;P1;durP1;ratioP1;P2;durP2;ratioP2
33814;SDS011;20121;51.910;8.406;2022-07-31T00:01:47;1.88;;;1.55;;
33814;SDS011;20121;51.910;8.406;2022-07-31T00:04:14;2.85;;;1.52;;
33814;SDS011;20121;51.910;8.406;2022-07-31T00:06:39;2.53;;;1.50;;
33814;SDS011;20121;51.910;8.406;2022-07-31T00:09:07;1.52;;;1.27;;
33814;SDS011;20121;51.910;8.406;2022-07-31T00:11:33;2.90;;;2.10;;
33814;SDS011;20121;51.910;8.406;2022-07-31T00:13:58;1.30;;;1.20;;
33814;SDS011;20121;51.910;8.406;2022-07-31T00:16:25;2.00;;;1.33;;
33814;SDS011;20121;51.910;8.406;2022-07-31T00:18:50;1.73;;;1.60;;
33814;SDS011;20121;51.910;8.406;2022-07-31T00:21:16;1.77;;;1.50;;
33814;SDS011;20121;51.910;8.406;2022-07-31T00:23:42;6.35;;;2.67;;
33814;SDS011;20121;51.910;8.406;2022-07-31T00:26:08;1.63;;;1.47;;
33814;SDS011;20121;51.910;8.406;2022-07-31T00:28:35;1.60;;;1.50;;
33814;SDS011;20121;51.910;8.406;2022-07-31T00:31:01;1.45;;;1.35;;
33814;SDS011;20121;51.910;8.406;2022-07-31T00:33:27;4.20;;;3.20;;
33814;SDS011;20121;51.910;8.406;2022-07-31T00:35:53;1.30;;;1.20;;
33814;SDS011;20121;51.910;8.406;2022-07-31T00:38:18;1.93;;;1.60;;
33814;SDS011;20121;51.910;8.406;2022-07-31T00:40:45;1.33;;;1.20;;
33814;SDS011;20121;51.910;8.406;2022-07-31T00:43:12;1.48;;;1.35;;
33814;SDS011;20121;51.910;8.406;2022-07-31T00:45:38;1.38;;;1.27;;
33814;SDS011;20121;51.910;8.406;2022-07-31T00:48:04;3.00;;;1.83;;
33814;SDS011;20121;51.910;8.406;2022-07-31T00:50:30;1.70;;;1.57;;
33814;SDS011;20121;51.910;8.406;2022-07-31T00:52:56;1.90;;;1.80;;
33814;SDS011;20121;51.910;8.406;2022-07-31T00:55:21;1.80;;;1.70;;
33814;SDS011;20121;51.910;8.406;2022-07-31T00:57:47;2.00;;;1.63;;
33814;SDS011;20121;51.910;8.406;2022-07-31T01:00:13;1.93;;;1.27;;
33814;SDS011;20121;51.910;8.406;2022-07-31T01:02:39;2.58;;;1.60;;
33814;SDS011;20121;51.910;8.406;2022-07-31T01:05:05;1.30;;;1.20;;
33814;SDS011;20121;51.910;8.406;2022-07-31T01:07:30;3.40;;;2.00;;
33814;SDS011;20121;51.910;8.406;2022-07-31T01:09:56;2.80;;;1.60;;
33814;SDS011;20121;51.910;8.406;2022-07-31T01:12:44;2.20;;;1.58;;
33814;SDS011;20121;51.910;8.406;2022-07-31T01:15:16;1.95;;;1.85;;
33814;SDS011;20121;51.910;8.406;2022-07-31T01:17:43;2.38;;;1.80;;
33814;SDS011;20121;51.910;8.406;2022-07-31T01:20:11;2.47;;;1.80;;
33814;SDS011;20121;51.910;8.406;2022-07-31T01:30:21;2.75;;;1.70;;
33814;SDS011;20121;51.910;8.406;2022-07-31T01:32:49;1.85;;;1.63;;
33814;SDS011;20121;51.910;8.406;2022-07-31T01:35:27;3.78;;;1.85;;
33814;SDS011;20121;51.910;8.406;2022-07-31T01:40:32;2.65;;;1.25;;
33814;SDS011;20121;51.910;8.406;2022-07-31T01:43:06;2.28;;;2.08;;
33814;SDS011;20121;51.910;8.406;2022-07-31T01:45:37;1.50;;;1.38;;
33814;SDS011;20121;51.910;8.406;2022-07-31T01:48:05;3.58;;;2.00;;
33814;SDS011;20121;51.910;8.406;2022-07-31T01:50:32;2.45;;;1.70;;
33814;SDS011;20121;51.910;8.406;2022-07-31T01:53:00;1.88;;;1.50;;
33814;SDS011;20121;51.910;8.406;2022-07-31T01:55:26;1.52;;;1.38;;
33814;SDS011;20121;51.910;8.406;2022-07-31T01:57:55;2.30;;;2.00;;
33814;SDS011;20121;51.910;8.406;2022-07-31T02:00:21;10.00;;;2.05;;
33814;SDS011;20121;51.910;8.406;2022-07-31T02:02:47;2.20;;;1.53;;
33814;SDS011;20121;51.910;8.406;2022-07-31T02:05:15;2.28;;;1.35;;
33814;SDS011;20121;51.910;8.406;2022-07-31T02:07:42;2.00;;;1.60;;
33814;SDS011;20121;51.910;8.406;2022-07-31T02:10:09;1.30;;;1.20;;
33814;SDS011;20121;51.910;8.406;2022-07-31T02:12:38;2.10;;;1.60;;
33814;SDS011;20121;51.910;8.406;2022-07-31T02:15:06;2.03;;;1.80;;
33814;SDS011;20121;51.910;8.406;2022-07-31T02:17:35;2.70;;;1.83;;
33814;SDS011;20121;51.910;8.406;2022-07-31T02:20:03;1.60;;;1.50;;
33814;SDS011;20121;51.910;8.406;2022-07-31T02:22:32;1.90;;;1.58;;
33814;SDS011;20121;51.910;8.406;2022-07-31T02:24:59;2.08;;;1.75;;
33814;SDS011;20121;51.910;8.406;2022-07-31T02:27:26;6.15;;;1.90;;
33814;SDS011;20121;51.910;8.406;2022-07-31T02:29:54;2.40;;;1.80;;
33814;SDS011;20121;51.910;8.406;2022-07-31T02:32:21;1.70;;;1.60;;
33814;SDS011;20121;51.910;8.406;2022-07-31T02:34:47;2.38;;;2.17;;
33814;SDS011;20121;51.910;8.406;2022-07-31T02:37:14;2.80;;;2.60;;
33814;SDS011;20121;51.910;8.406;2022-07-31T02:39:41;6.63;;;3.17;;
33814;SDS011;20121;51.910;8.406;2022-07-31T02:42:08;1.67;;;1.52;;
33814;SDS011;20121;51.910;8.406;2022-07-31T02:44:34;2.40;;;1.60;;
33814;SDS011;20121;51.910;8.406;2022-07-31T02:47:01;4.13;;;1.70;;
33814;SDS011;20121;51.910;8.406;2022-07-31T02:49:29;4.25;;;2.70;;
33814;SDS011;20121;51.910;8.406;2022-07-31T02:51:57;3.88;;;2.50;;
33814;SDS011;20121;51.910;8.406;2022-07-31T02:54:23;2.23;;;2.03;;
33814;SDS011;20121;51.910;8.406;2022-07-31T02:56:50;2.28;;;2.08;;
33814;SDS011;20121;51.910;8.406;2022-07-31T02:59:17;2.42;;;2.22;;
33814;SDS011;20121;51.910;8.406;2022-07-31T03:01:43;3.30;;;2.40;;
33814;SDS011;20121;51.910;8.406;2022-07-31T03:04:08;4.30;;;2.90;;
33814;SDS011;20121;51.910;8.406;2022-07-31T03:06:34;2.43;;;2.23;;
33814;SDS011;20121;51.910;8.406;2022-07-31T03:09:00;2.95;;;2.65;;
33814;SDS011;20121;51.910;8.406;2022-07-31T03:11:26;2.13;;;1.93;;
33814;SDS011;20121;51.910;8.406;2022-07-31T03:13:52;4.10;;;3.60;;
33814;SDS011;20121;51.910;8.406;2022-07-31T03:16:19;3.08;;;2.70;;
33814;SDS011;20121;51.910;8.406;2022-07-31T03:18:46;3.28;;;2.97;;
33814;SDS011;20121;51.910;8.406;2022-07-31T03:21:12;3.55;;;2.58;;
33814;SDS011;20121;51.910;8.406;2022-07-31T03:23:39;15.88;;;2.92;;
33814;SDS011;20121;51.910;8.406;2022-07-31T03:26:05;7.00;;;3.17;;
33814;SDS011;20121;51.910;8.406;2022-07-31T03:28:32;6.38;;;3.28;;
33814;SDS011;20121;51.910;8.406;2022-07-31T03:30:59;6.82;;;3.08;;
33814;SDS011;20121;51.910;8.406;2022-07-31T03:33:24;3.90;;;2.23;;
33814;SDS011;20121;51.910;8.406;2022-07-31T03:35:50;2.57;;;2.37;;
33814;SDS011;20121;51.910;8.406;2022-07-31T03:38:17;3.05;;;2.60;;
33814;SDS011;20121;51.910;8.406;2022-07-31T03:40:44;3.28;;;2.90;;
33814;SDS011;20121;51.910;8.406;2022-07-31T03:43:10;3.30;;;3.08;;
33814;SDS011;20121;51.910;8.406;2022-07-31T03:45:37;3.50;;;3.20;;
33814;SDS011;20121;51.910;8.406;2022-07-31T03:48:04;4.60;;;2.87;;
33814;SDS011;20121;51.910;8.406;2022-07-31T03:50:32;3.40;;;2.88;;
33814;SDS011;20121;51.910;8.406;2022-07-31T03:53:02;4.47;;;3.03;;
33814;SDS011;20121;51.910;8.406;2022-07-31T03:55:32;3.45;;;2.58;;
33814;SDS011;20121;51.910;8.406;2022-07-31T03:57:59;2.90;;;2.70;;
33814;SDS011;20121;51.910;8.406;2022-07-31T04:00:27;3.03;;;2.70;;
33814;SDS011;20121;51.910;8.406;2022-07-31T04:02:53;3.20;;;2.90;;
33814;SDS011;20121;51.910;8.406;2022-07-31T04:05:20;2.53;;;2.25;;
33814;SDS011;20121;51.910;8.406;2022-07-31T04:07:47;6.95;;;2.78;;
33814;SDS011;20121;51.910;8.406;2022-07-31T04:10:13;3.70;;;3.27;;
33814;SDS011;20121;51.910;8.406;2022-07-31T04:12:39;3.40;;;3.10;;
33814;SDS011;20121;51.910;8.406;2022-07-31T04:15:05;6.80;;;3.17;;
33814;SDS011;20121;51.910;8.406;2022-07-31T04:17:31;3.65;;;2.55;;
33814;SDS011;20121;51.910;8.406;2022-07-31T04:19:56;3.10;;;2.80;;
33814;SDS011;20121;51.910;8.406;2022-07-31T04:22:22;3.30;;;2.83;;
33814;SDS011;20121;51.910;8.406;2022-07-31T04:24:48;4.27;;;3.70;;
33814;SDS011;20121;51.910;8.406;2022-07-31T04:27:16;4.07;;;3.17;;
33814;SDS011;20121;51.910;8.406;2022-07-31T04:29:45;2.63;;;2.25;;
33814;SDS011;20121;51.910;8.406;2022-07-31T04:32:13;3.15;;;2.65;;
33814;SDS011;20121;51.910;8.406;2022-07-31T04:34:39;3.67;;;3.13;;
33814;SDS011;20121;51.910;8.406;2022-07-31T04:37:06;3.60;;;2.97;;
33814;SDS011;20121;51.910;8.406;2022-07-31T04:39:32;4.03;;;2.78;;
33814;SDS011;20121;51.910;8.406;2022-07-31T04:41:58;5.30;;;3.40;;
33814;SDS011;20121;51.910;8.406;2022-07-31T04:44:24;3.77;;;2.70;;
33814;SDS011;20121;51.910;8.406;2022-07-31T04:46:49;5.10;;;3.70;;
33814;SDS011;20121;51.910;8.406;2022-07-31T04:49:15;4.47;;;3.00;;
33814;SDS011;20121;51.910;8.406;2022-07-31T04:51:41;3.10;;;2.90;;
33814;SDS011;20121;51.910;8.406;2022-07-31T04:54:07;2.73;;;2.53;;
33814;SDS011;20121;51.910;8.406;2022-07-31T04:56:34;2.75;;;2.55;;
33814;SDS011;20121;51.910;8.406;2022-07-31T04:59:09;7.05;;;2.95;;
33814;SDS011;20121;51.910;8.406;2022-07-31T05:01:37;3.85;;;3.05;;
33814;SDS011;20121;51.910;8.406;2022-07-31T05:04:04;6.53;;;2.72;;
33814;SDS011;20121;51.910;8.406;2022-07-31T05:06:31;3.45;;;2.85;;
33814;SDS011;20121;51.910;8.406;2022-07-31T05:09:09;4.13;;;2.60;;
33814;SDS011;20121;51.910;8.406;2022-07-31T05:11:39;4.40;;;2.83;;
33814;SDS011;20121;51.910;8.406;2022-07-31T05:14:06;3.53;;;2.90;;
33814;SDS011;20121;51.910;8.406;2022-07-31T05:16:33;2.83;;;2.63;;
33814;SDS011;20121;51.910;8.406;2022-07-31T05:18:59;4.80;;;3.10;;
33814;SDS011;20121;51.910;8.406;2022-07-31T05:21:26;3.47;;;3.17;;
33814;SDS011;20121;51.910;8.406;2022-07-31T05:23:54;3.95;;;3.25;;
33814;SDS011;20121;51.910;8.406;2022-07-31T05:26:21;3.65;;;2.97;;
33814;SDS011;20121;51.910;8.406;2022-07-31T05:28:47;3.10;;;2.78;;
33814;SDS011;20121;51.910;8.406;2022-07-31T05:31:15;3.58;;;2.95;;
33814;SDS011;20121;51.910;8.406;2022-07-31T05:33:41;3.92;;;3.28;;
33814;SDS011;20121;51.910;8.406;2022-07-31T05:36:08;4.25;;;3.25;;
33814;SDS011;20121;51.910;8.406;2022-07-31T05:38:34;2.60;;;2.38;;
33814;SDS011;20121;51.910;8.406;2022-07-31T05:40:59;4.53;;;3.10;;
33814;SDS011;20121;51.910;8.406;2022-07-31T05:43:25;4.73;;;2.93;;
33814;SDS011;20121;51.910;8.406;2022-07-31T05:45:51;4.20;;;3.10;;
33814;SDS011;20121;51.910;8.406;2022-07-31T05:48:17;3.73;;;2.33;;
33814;SDS011;20121;51.910;8.406;2022-07-31T05:50:43;2.53;;;2.33;;
33814;SDS011;20121;51.910;8.406;2022-07-31T05:53:10;2.35;;;2.15;;
33814;SDS011;20121;51.910;8.406;2022-07-31T05:55:38;4.32;;;2.95;;
33814;SDS011;20121;51.910;8.406;2022-07-31T05:58:08;2.50;;;1.90;;
33814;SDS011;20121;51.910;8.406;2022-07-31T06:00:34;5.67;;;2.87;;
33814;SDS011;20121;51.910;8.406;2022-07-31T06:03:00;4.32;;;2.60;;
33814;SDS011;20121;51.910;8.406;2022-07-31T06:05:26;2.45;;;2.05;;
33814;SDS011;20121;51.910;8.406;2022-07-31T06:07:53;3.55;;;2.67;;
33814;SDS011;20121;51.910;8.406;2022-07-31T06:10:20;2.90;;;2.60;;
33814;SDS011;20121;51.910;8.406;2022-07-31T06:12:46;4.55;;;2.25;;
33814;SDS011;20121;51.910;8.406;2022-07-31T06:15:11;2.80;;;2.60;;
33814;SDS011;20121;51.910;8.406;2022-07-31T06:17:37;3.93;;;2.80;;
33814;SDS011;20121;51.910;8.406;2022-07-31T06:20:04;6.88;;;2.80;;
33814;SDS011;20121;51.910;8.406;2022-07-31T06:22:30;3.00;;;2.30;;
33814;SDS011;20121;51.910;8.406;2022-07-31T06:24:56;5.03;;;3.33;;
33814;SDS011;20121;51.910;8.406;2022-07-31T06:27:21;2.50;;;2.00;;
33814;SDS011;20121;51.910;8.406;2022-07-31T06:29:47;2.97;;;2.77;;
33814;SDS011;20121;51.910;8.406;2022-07-31T06:32:13;4.10;;;2.93;;
33814;SDS011;20121;51.910;8.406;2022-07-31T06:34:39;2.50;;;2.20;;
33814;SDS011;20121;51.910;8.406;2022-07-31T06:37:05;2.88;;;2.40;;
33814;SDS011;20121;51.910;8.406;2022-07-31T06:39:31;2.63;;;2.13;;
33814;SDS011;20121;51.910;8.406;2022-07-31T06:41:56;2.67;;;2.10;;
33814;SDS011;20121;51.910;8.406;2022-07-31T06:44:22;5.35;;;2.28;;
33814;SDS011;20121;51.910;8.406;2022-07-31T06:46:48;7.13;;;2.40;;
33814;SDS011;20121;51.910;8.406;2022-07-31T06:49:16;6.57;;;2.72;;
33814;SDS011;20121;51.910;8.406;2022-07-31T06:51:42;2.35;;;2.15;;
33814;SDS011;20121;51.910;8.406;2022-07-31T06:54:08;2.30;;;2.10;;
33814;SDS011;20121;51.910;8.406;2022-07-31T06:56:35;2.90;;;2.45;;
33814;SDS011;20121;51.910;8.406;2022-07-31T06:59:02;2.22;;;2.03;;
33814;SDS011;20121;51.910;8.406;2022-07-31T07:01:30;2.20;;;2.00;;
33814;SDS011;20121;51.910;8.406;2022-07-31T07:03:55;2.30;;;2.10;;
33814;SDS011;20121;51.910;8.406;2022-07-31T07:06:21;2.77;;;1.90;;
33814;SDS011;20121;51.910;8.406;2022-07-31T07:08:47;3.55;;;2.75;;
33814;SDS011;20121;51.910;8.406;2022-07-31T07:11:14;2.28;;;2.08;;
33814;SDS011;20121;51.910;8.406;2022-07-31T07:13:40;3.75;;;1.88;;
33814;SDS011;20121;51.910;8.406;2022-07-31T07:16:06;4.67;;;2.60;;
33814;SDS011;20121;51.910;8.406;2022-07-31T07:18:31;3.60;;;2.87;;
33814;SDS011;20121;51.910;8.406;2022-07-31T07:20:57;2.73;;;2.43;;
33814;SDS011;20121;51.910;8.406;2022-07-31T07:23:23;2.50;;;2.30;;
33814;SDS011;20121;51.910;8.406;2022-07-31T07:25:48;2.50;;;2.13;;
33814;SDS011;20121;51.910;8.406;2022-07-31T07:28:15;4.18;;;2.47;;
33814;SDS011;20121;51.910;8.406;2022-07-31T07:30:41;2.10;;;1.90;;
33814;SDS011;20121;51.910;8.406;2022-07-31T07:33:06;1.97;;;1.80;;
33814;SDS011;20121;51.910;8.406;2022-07-31T07:35:32;4.20;;;2.23;;
33814;SDS011;20121;51.910;8.406;2022-07-31T07:37:58;2.43;;;2.27;;
33814;SDS011;20121;51.910;8.406;2022-07-31T07:40:24;4.20;;;2.63;;
33814;SDS011;20121;51.910;8.406;2022-07-31T07:42:51;2.95;;;1.63;;
33814;SDS011;20121;51.910;8.406;2022-07-31T07:45:17;2.50;;;2.30;;
33814;SDS011;20121;51.910;8.406;2022-07-31T07:47:43;2.25;;;2.00;;
33814;SDS011;20121;51.910;8.406;2022-07-31T07:50:09;2.30;;;2.10;;
33814;SDS011;20121;51.910;8.406;2022-07-31T07:52:36;2.72;;;2.53;;
33814;SDS011;20121;51.910;8.406;2022-07-31T07:55:03;2.45;;;1.85;;
33814;SDS011;20121;51.910;8.406;2022-07-31T07:57:30;2.78;;;2.05;;
33814;SDS011;20121;51.910;8.406;2022-07-31T08:00:00;2.22;;;2.03;;
33814;SDS011;20121;51.910;8.406;2022-07-31T08:02:29;9.23;;;2.10;;
33814;SDS011;20121;51.910;8.406;2022-07-31T08:04:54;2.10;;;1.93;;
33814;SDS011;20121;51.910;8.406;2022-07-31T08:07:27;5.38;;;2.10;;
33814;SDS011;20121;51.910;8.406;2022-07-31T08:09:54;2.47;;;2.38;;
33814;SDS011;20121;51.910;8.406;2022-07-31T08:12:21;4.60;;;1.73;;
33814;SDS011;20121;51.910;8.406;2022-07-31T08:14:46;4.80;;;2.87;;
33814;SDS011;20121;51.910;8.406;2022-07-31T08:17:12;2.70;;;2.50;;
33814;SDS011;20121;51.910;8.406;2022-07-31T08:19:38;2.50;;;1.90;;
33814;SDS011;20121;51.910;8.406;2022-07-31T08:22:05;2.40;;;2.20;;
33814;SDS011;20121;51.910;8.406;2022-07-31T08:24:31;1.90;;;1.77;;
33814;SDS011;20121;51.910;8.406;2022-07-31T08:26:57;2.43;;;2.20;;
33814;SDS011;20121;51.910;8.406;2022-07-31T08:29:41;3.38;;;1.70;;
33814;SDS011;20121;51.910;8.406;2022-07-31T08:32:07;2.40;;;2.20;;
33814;SDS011;20121;51.910;8.406;2022-07-31T08:34:32;2.57;;;1.87;;
33814;SDS011;20121;51.910;8.406;2022-07-31T08:36:58;2.00;;;1.90;;
33814;SDS011;20121;51.910;8.406;2022-07-31T08:39:24;1.97;;;1.77;;
33814;SDS011;20121;51.910;8.406;2022-07-31T08:41:49;1.73;;;1.63;;
33814;SDS011;20121;51.910;8.406;2022-07-31T08:44:15;1.80;;;1.70;;
33814;SDS011;20121;51.910;8.406;2022-07-31T08:46:41;2.63;;;1.60;;
33814;SDS011;20121;51.910;8.406;2022-07-31T08:49:07;2.08;;;1.98;;
33814;SDS011;20121;51.910;8.406;2022-07-31T08:51:38;2.90;;;2.53;;
33814;SDS011;20121;51.910;8.406;2022-07-31T08:54:07;2.25;;;2.05;;
33814;SDS011;20121;51.910;8.406;2022-07-31T08:56:37;1.45;;;1.35;;
33814;SDS011;20121;51.910;8.406;2022-07-31T08:59:03;1.90;;;1.80;;
33814;SDS011;20121;51.910;8.406;2022-07-31T09:01:33;1.75;;;1.65;;
33814;SDS011;20121;51.910;8.406;2022-07-31T09:04:00;1.73;;;1.63;;
33814;SDS011;20121;51.910;8.406;2022-07-31T09:06:26;1.98;;;1.60;;
33814;SDS011;20121;51.910;8.406;2022-07-31T09:08:54;2.20;;;2.10;;
33814;SDS011;20121;51.910;8.406;2022-07-31T09:11:20;2.20;;;2.00;;
33814;SDS011;20121;51.910;8.406;2022-07-31T09:13:59;4.65;;;1.95;;
33814;SDS011;20121;51.910;8.406;2022-07-31T09:16:27;5.35;;;2.15;;
33814;SDS011;20121;51.910;8.406;2022-07-31T09:18:57;1.92;;;1.83;;
33814;SDS011;20121;51.910;8.406;2022-07-31T09:21:24;3.15;;;2.10;;
33814;SDS011;20121;51.910;8.406;2022-07-31T09:23:50;1.53;;;1.43;;
33814;SDS011;20121;51.910;8.406;2022-07-31T09:26:18;4.82;;;2.10;;
33814;SDS011;20121;51.910;8.406;2022-07-31T09:28:45;1.60;;;1.50;;
33814;SDS011;20121;51.910;8.406;2022-07-31T09:31:12;1.85;;;1.75;;
33814;SDS011;20121;51.910;8.406;2022-07-31T09:33:41;3.60;;;2.03;;
33814;SDS011;20121;51.910;8.406;2022-07-31T09:36:07;1.65;;;1.38;;
33814;SDS011;20121;51.910;8.406;2022-07-31T09:38:37;1.67;;;1.58;;
33814;SDS011;20121;51.910;8.406;2022-07-31T09:43:34;1.40;;;1.30;;
33814;SDS011;20121;51.910;8.406;2022-07-31T09:46:01;1.70;;;1.60;;
33814;SDS011;20121;51.910;8.406;2022-07-31T09:48:28;1.90;;;1.70;;
33814;SDS011;20121;51.910;8.406;2022-07-31T09:50:55;1.63;;;1.53;;
33814;SDS011;20121;51.910;8.406;2022-07-31T09:53:22;2.30;;;2.10;;
33814;SDS011;20121;51.910;8.406;2022-07-31T09:55:49;4.00;;;1.52;;
33814;SDS011;20121;51.910;8.406;2022-07-31T09:58:22;2.95;;;1.63;;
33814;SDS011;20121;51.910;8.406;2022-07-31T10:00:52;2.25;;;2.05;;
33814;SDS011;20121;51.910;8.406;2022-07-31T10:03:19;1.38;;;1.27;;
33814;SDS011;20121;51.910;8.406;2022-07-31T10:05:45;1.98;;;1.70;;
33814;SDS011;20121;51.910;8.406;2022-07-31T10:08:12;2.63;;;1.70;;
33814;SDS011;20121;51.910;8.406;2022-07-31T10:10:38;2.00;;;1.90;;
33814;SDS011;20121;51.910;8.406;2022-07-31T10:13:07;1.63;;;1.30;;
33814;SDS011;20121;51.910;8.406;2022-07-31T10:15:39;2.75;;;1.48;;
33814;SDS011;20121;51.910;8.406;2022-07-31T10:18:05;1.95;;;1.70;;
33814;SDS011;20121;51.910;8.406;2022-07-31T10:20:33;5.43;;;2.03;;
33814;SDS011;20121;51.910;8.406;2022-07-31T10:23:04;2.65;;;1.23;;
33814;SDS011;20121;51.910;8.406;2022-07-31T10:25:33;1.30;;;1.20;;
33814;SDS011;20121;51.910;8.406;2022-07-31T10:28:03;2.42;;;1.83;;
33814;SDS011;20121;51.910;8.406;2022-07-31T10:30:31;2.90;;;1.60;;
33814;SDS011;20121;51.910;8.406;2022-07-31T10:32:56;2.13;;;1.40;;
33814;SDS011;20121;51.910;8.406;2022-07-31T10:35:23;1.10;;;1.00;;
33814;SDS011;20121;51.910;8.406;2022-07-31T10:37:57;1.30;;;1.10;;
33814;SDS011;20121;51.910;8.406;2022-07-31T10:40:38;1.65;;;1.20;;
33814;SDS011;20121;51.910;8.406;2022-07-31T10:43:34;1.40;;;1.30;;
33814;SDS011;20121;51.910;8.406;2022-07-31T10:46:09;1.50;;;1.40;;
33814;SDS011;20121;51.910;8.406;2022-07-31T10:48:36;1.20;;;1.10;;
33814;SDS011;20121;51.910;8.406;2022-07-31T10:51:06;2.23;;;1.43;;
33814;SDS011;20121;51.910;8.406;2022-07-31T10:53:34;3.30;;;1.77;;
33814;SDS011;20121;51.910;8.406;2022-07-31T10:56:04;1.55;;;1.45;;
33814;SDS011;20121;51.910;8.406;2022-07-31T10:58:34;1.60;;;1.50;;
33814;SDS011;20121;51.910;8.406;2022-07-31T11:01:15;1.30;;;1.20;;
33814;SDS011;20121;51.910;8.406;2022-07-31T11:03:42;7.20;;;1.73;;
33814;SDS011;20121;51.910;8.406;2022-07-31T11:06:11;1.50;;;1.17;;
33814;SDS011;20121;51.910;8.406;2022-07-31T11:08:46;2.00;;;1.45;;
33814;SDS011;20121;51.910;8.406;2022-07-31T11:11:15;1.33;;;1.23;;
33814;SDS011;20121;51.910;8.406;2022-07-31T11:13:47;1.83;;;1.73;;
33814;SDS011;20121;51.910;8.406;2022-07-31T11:16:14;1.60;;;1.50;;
33814;SDS011;20121;51.910;8.406;2022-07-31T11:18:40;1.52;;;1.42;;
33814;SDS011;20121;51.910;8.406;2022-07-31T11:21:08;1.33;;;1.20;;
33814;SDS011;20121;51.910;8.406;2022-07-31T11:23:34;2.05;;;1.80;;
33814;SDS011;20121;51.910;8.406;2022-07-31T11:26:04;1.35;;;1.25;;
33814;SDS011;20121;51.910;8.406;2022-07-31T11:28:31;1.58;;;1.40;;
33814;SDS011;20121;51.910;8.406;2022-07-31T11:30:58;1.70;;;1.25;;
33814;SDS011;20121;51.910;8.406;2022-07-31T11:38:49;1.63;;;1.52;;
33814;SDS011;20121;51.910;8.406;2022-07-31T11:41:17;1.75;;;1.65;;
33814;SDS011;20121;51.910;8.406;2022-07-31T11:43:46;1.42;;;1.33;;
33814;SDS011;20121;51.910;8.406;2022-07-31T11:46:18;1.67;;;1.58;;
33814;SDS011;20121;51.910;8.406;2022-07-31T11:48:48;2.28;;;1.73;;
33814;SDS011;20121;51.910;8.406;2022-07-31T11:51:17;2.43;;;1.70;;
33814;SDS011;20121;51.910;8.406;2022-07-31T11:53:44;1.70;;;1.60;;
33814;SDS011;20121;51.910;8.406;2022-07-31T11:56:10;1.30;;;1.20;;
33814;SDS011;20121;51.910;8.406;2022-07-31T11:58:36;1.17;;;1.08;;
33814;SDS011;20121;51.910;8.406;2022-07-31T12:01:05;1.20;;;0.90;;
33814;SDS011;20121;51.910;8.406;2022-07-31T12:03:36;3.22;;;1.40;;
33814;SDS011;20121;51.910;8.406;2022-07-31T12:06:03;1.67;;;1.15;;
33814;SDS011;20121;51.910;8.406;2022-07-31T12:08:30;1.00;;;0.90;;
33814;SDS011;20121;51.910;8.406;2022-07-31T12:10:56;1.55;;;1.45;;
33814;SDS011;20121;51.910;8.406;2022-07-31T12:13:24;1.33;;;1.20;;
33814;SDS011;20121;51.910;8.406;2022-07-31T12:16:01;1.20;;;1.10;;
33814;SDS011;20121;51.910;8.406;2022-07-31T12:18:50;2.65;;;1.15;;
33814;SDS011;20121;51.910;8.406;2022-07-31T12:21:29;1.58;;;1.27;;
33814;SDS011;20121;51.910;8.406;2022-07-31T12:23:57;1.35;;;1.10;;
33814;SDS011;20121;51.910;8.406;2022-07-31T12:26:24;1.00;;;0.90;;
33814;SDS011;20121;51.910;8.406;2022-07-31T12:28:58;1.20;;;1.10;;
33814;SDS011;20121;51.910;8.406;2022-07-31T12:31:25;0.90;;;0.90;;
33814;SDS011;20121;51.910;8.406;2022-07-31T12:33:52;1.33;;;1.23;;
33814;SDS011;20121;51.910;8.406;2022-07-31T12:36:18;1.80;;;1.10;;
33814;SDS011;20121;51.910;8.406;2022-07-31T12:38:44;2.20;;;1.47;;
33814;SDS011;20121;51.910;8.406;2022-07-31T12:41:10;1.73;;;1.63;;
33814;SDS011;20121;51.910;8.406;2022-07-31T12:43:36;2.45;;;1.80;;
33814;SDS011;20121;51.910;8.406;2022-07-31T12:46:02;1.20;;;1.10;;
33814;SDS011;20121;51.910;8.406;2022-07-31T12:48:31;1.50;;;1.40;;
33814;SDS011;20121;51.910;8.406;2022-07-31T12:50:57;1.42;;;0.90;;
33814;SDS011;20121;51.910;8.406;2022-07-31T12:53:27;3.22;;;1.17;;
33814;SDS011;20121;51.910;8.406;2022-07-31T12:55:56;2.65;;;1.17;;
33814;SDS011;20121;51.910;8.406;2022-07-31T12:58:22;1.50;;;1.40;;
33814;SDS011;20121;51.910;8.406;2022-07-31T13:00:48;1.52;;;1.42;;
33814;SDS011;20121;51.910;8.406;2022-07-31T13:03:14;2.70;;;1.67;;
33814;SDS011;20121;51.910;8.406;2022-07-31T13:05:39;2.50;;;1.23;;
33814;SDS011;20121;51.910;8.406;2022-07-31T13:08:05;1.00;;;0.97;;
33814;SDS011;20121;51.910;8.406;2022-07-31T13:10:32;2.20;;;1.50;;
33814;SDS011;20121;51.910;8.406;2022-07-31T13:12:58;1.13;;;1.02;;
33814;SDS011;20121;51.910;8.406;2022-07-31T13:15:24;1.50;;;1.40;;
33814;SDS011;20121;51.910;8.406;2022-07-31T13:17:56;1.92;;;1.27;;
33814;SDS011;20121;51.910;8.406;2022-07-31T13:20:25;1.23;;;1.10;;
33814;SDS011;20121;51.910;8.406;2022-07-31T13:22:51;1.23;;;1.03;;
33814;SDS011;20121;51.910;8.406;2022-07-31T13:25:17;1.10;;;0.97;;
33814;SDS011;20121;51.910;8.406;2022-07-31T13:27:43;1.40;;;1.30;;
33814;SDS011;20121;51.910;8.406;2022-07-31T13:30:09;1.30;;;1.20;;
33814;SDS011;20121;51.910;8.406;2022-07-31T13:32:35;1.00;;;1.00;;
33814;SDS011;20121;51.910;8.406;2022-07-31T13:35:00;4.10;;;1.33;;
33814;SDS011;20121;51.910;8.406;2022-07-31T13:37:26;2.83;;;1.60;;
33814;SDS011;20121;51.910;8.406;2022-07-31T13:39:52;1.20;;;1.00;;
33814;SDS011;20121;51.910;8.406;2022-07-31T13:42:17;1.40;;;1.10;;
33814;SDS011;20121;51.910;8.406;2022-07-31T13:44:43;1.50;;;1.37;;
33814;SDS011;20121;51.910;8.406;2022-07-31T13:47:09;1.17;;;1.10;;
33814;SDS011;20121;51.910;8.406;2022-07-31T13:49:34;1.70;;;1.60;;
33814;SDS011;20121;51.910;8.406;2022-07-31T13:52:01;2.00;;;1.90;;
33814;SDS011;20121;51.910;8.406;2022-07-31T13:54:27;1.80;;;1.70;;
33814;SDS011;20121;51.910;8.406;2022-07-31T13:56:53;2.63;;;2.43;;
33814;SDS011;20121;51.910;8.406;2022-07-31T13:59:19;1.60;;;1.50;;
33814;SDS011;20121;51.910;8.406;2022-07-31T14:01:45;5.38;;;1.75;;
33814;SDS011;20121;51.910;8.406;2022-07-31T14:04:15;2.10;;;1.70;;
33814;SDS011;20121;51.910;8.406;2022-07-31T14:06:41;2.00;;;1.67;;
33814;SDS011;20121;51.910;8.406;2022-07-31T14:09:07;2.20;;;1.93;;
33814;SDS011;20121;51.910;8.406;2022-07-31T14:11:33;1.83;;;1.70;;
33814;SDS011;20121;51.910;8.406;2022-07-31T14:13:58;1.70;;;1.60;;
33814;SDS011;20121;51.910;8.406;2022-07-31T14:16:24;2.47;;;1.30;;
33814;SDS011;20121;51.910;8.406;2022-07-31T14:18:49;3.13;;;2.80;;
33814;SDS011;20121;51.910;8.406;2022-07-31T14:21:15;1.90;;;1.80;;
33814;SDS011;20121;51.910;8.406;2022-07-31T14:23:41;1.87;;;1.77;;
33814;SDS011;20121;51.910;8.406;2022-07-31T14:26:06;1.93;;;1.47;;
33814;SDS011;20121;51.910;8.406;2022-07-31T14:28:32;2.10;;;2.00;;
33814;SDS011;20121;51.910;8.406;2022-07-31T14:30:59;3.47;;;2.30;;
33814;SDS011;20121;51.910;8.406;2022-07-31T14:33:25;1.63;;;1.33;;
33814;SDS011;20121;51.910;8.406;2022-07-31T14:35:50;1.83;;;1.43;;
33814;SDS011;20121;51.910;8.406;2022-07-31T14:38:16;2.60;;;1.77;;
33814;SDS011;20121;51.910;8.406;2022-07-31T14:40:42;1.90;;;1.63;;
33814;SDS011;20121;51.910;8.406;2022-07-31T14:43:08;1.85;;;1.75;;
33814;SDS011;20121;51.910;8.406;2022-07-31T14:45:35;1.83;;;1.73;;
33814;SDS011;20121;51.910;8.406;2022-07-31T14:48:01;2.45;;;1.85;;
33814;SDS011;20121;51.910;8.406;2022-07-31T14:50:27;2.60;;;1.57;;
33814;SDS011;20121;51.910;8.406;2022-07-31T14:52:53;1.77;;;1.63;;
33814;SDS011;20121;51.910;8.406;2022-07-31T14:55:20;1.60;;;1.50;;
33814;SDS011;20121;51.910;8.406;2022-07-31T14:57:48;1.90;;;1.60;;
33814;SDS011;20121;51.910;8.406;2022-07-31T15:00:14;3.73;;;2.07;;
33814;SDS011;20121;51.910;8.406;2022-07-31T15:02:41;1.63;;;1.52;;
33814;SDS011;20121;51.910;8.406;2022-07-31T15:05:07;1.50;;;1.40;;
33814;SDS011;20121;51.910;8.406;2022-07-31T15:07:34;1.73;;;1.63;;